This is the latest recevied weather packets stored in our database for station/object DM1HF-13. If no packets are shown the sender has not sent any weather packets the latest 10 day(s).
| Time | Temp. | Humidity | Pressure | Rain* | Wind** | Luminosity | Snow |
|---|---|---|---|---|---|---|---|
| 1777844417 | 18.89° C | 42% | 1013.6 hPa | 0 mm | - | 0 W/m² | - |
| 1777844116 | 18.89° C | 43% | 1013.5 hPa | 0 mm | - | 0 W/m² | - |
| 1777843816 | 18.33° C | 46% | 1013.5 hPa | 0 mm | - | 0 W/m² | - |
| 1777843516 | 18.33° C | 47% | 1013.5 hPa | 0 mm | - | 0 W/m² | - |
| 1777843216 | 18.33° C | 48% | 1013.4 hPa | 0 mm | - | 0 W/m² | - |
| 1777842917 | 18.33° C | 49% | 1013.3 hPa | 0 mm | - | 0 W/m² | - |
| 1777842616 | 17.78° C | 50% | 1013.2 hPa | 0 mm | - | 0 W/m² | - |
| 1777842316 | 18.33° C | 49% | 1013.2 hPa | 0 mm | - | 0 W/m² | - |
| 1777842017 | 17.78° C | 50% | 1013.2 hPa | 0 mm | - | 0 W/m² | - |
| 1777841716 | 18.33° C | 49% | 1013.1 hPa | 0 mm | - | 0 W/m² | - |
| 1777841417 | 18.33° C | 49% | 1013.1 hPa | 0 mm | - | 0 W/m² | - |
| 1777841117 | 18.33° C | 49% | 1013 hPa | 0 mm | - | 0 W/m² | - |
| 1777840816 | 18.33° C | 50% | 1013 hPa | 0 mm | - | 0 W/m² | - |
| 1777840516 | 18.33° C | 49% | 1012.9 hPa | 0 mm | - | 0 W/m² | - |
| 1777840216 | 18.33° C | 47% | 1012.9 hPa | 0 mm | - | 0 W/m² | - |
| 1777839916 | 18.33° C | 47% | 1012.9 hPa | 0 mm | - | 0 W/m² | - |
| 1777839616 | 18.89° C | 47% | 1012.9 hPa | 0 mm | - | 0 W/m² | - |
| 1777839317 | 18.89° C | 46% | 1012.8 hPa | 0 mm | - | 0 W/m² | - |
| 1777839016 | 18.89° C | 46% | 1012.9 hPa | 0 mm | - | 0 W/m² | - |
| 1777838716 | 18.89° C | 47% | 1012.9 hPa | 0 mm | - | 0 W/m² | - |
| 1777838416 | 18.89° C | 48% | 1012.8 hPa | 0 mm | - | 0 W/m² | - |
| 1777838116 | 18.89° C | 48% | 1012.9 hPa | 0 mm | - | 0 W/m² | - |
| 1777837817 | 19.44° C | 47% | 1012.9 hPa | 0 mm | - | 0 W/m² | - |
| 1777837517 | 19.44° C | 47% | 1012.9 hPa | 0 mm | - | 0 W/m² | - |
| 1777837216 | 19.44° C | 44% | 1013 hPa | 0 mm | - | 0 W/m² | - |
* Rain latest hour (hover to see other rain measurements)
** Current wind speed in m/s (hover to see current wind gust speed)